createdAt,value
2023-04-29T00:00:02.458Z,8.46
2023-04-29T00:00:12.390Z,8.45
2023-04-29T00:00:22.373Z,8.46
2023-04-29T00:00:32.374Z,8.45
2023-04-29T00:00:42.372Z,8.43
2023-04-29T00:00:52.376Z,8.46
2023-04-29T00:01:12.372Z,8.45
2023-04-29T00:01:22.377Z,8.44
2023-04-29T00:01:32.381Z,8.43
2023-04-29T00:01:42.379Z,8.43
2023-04-29T00:01:52.422Z,8.44
2023-04-29T00:02:02.415Z,8.43
2023-04-29T00:02:12.406Z,8.42
2023-04-29T00:02:22.679Z,8.42
2023-04-29T00:02:32.512Z,8.44
2023-04-29T00:02:42.610Z,8.43
2023-04-29T00:02:52.420Z,8.43
2023-04-29T00:03:02.584Z,8.42
2023-04-29T00:03:12.590Z,8.41
2023-04-29T00:03:32.655Z,8.42
2023-04-29T00:03:42.487Z,8.40
2023-04-29T00:03:52.443Z,8.41
2023-04-29T00:04:02.645Z,8.40
2023-04-29T00:04:12.472Z,8.40
2023-04-29T00:04:22.530Z,8.40
2023-04-29T00:04:32.545Z,8.41
2023-04-29T00:04:42.524Z,8.39
2023-04-29T00:04:52.470Z,8.37
2023-04-29T00:05:02.524Z,8.38
2023-04-29T00:05:12.833Z,8.37
2023-04-29T00:05:22.640Z,8.37
2023-04-29T00:05:42.491Z,8.38
2023-04-29T00:05:52.532Z,8.38
2023-04-29T00:06:02.660Z,8.37
2023-04-29T00:06:12.661Z,8.39
2023-04-29T00:06:22.583Z,8.38
2023-04-29T00:06:32.405Z,8.36
2023-04-29T00:06:42.402Z,8.37
2023-04-29T00:06:52.399Z,8.35
2023-04-29T00:07:02.405Z,8.34
2023-04-29T00:07:12.396Z,8.34
2023-04-29T00:07:22.407Z,8.35
2023-04-29T00:07:32.400Z,8.34
2023-04-29T00:07:42.402Z,8.35
2023-04-29T00:07:52.395Z,8.36
2023-04-29T00:08:02.399Z,8.36
2023-04-29T00:08:12.400Z,8.38
2023-04-29T00:08:22.403Z,8.38
2023-04-29T00:08:32.428Z,8.37
2023-04-29T00:08:42.412Z,8.37
2023-04-29T00:08:52.403Z,8.36
2023-04-29T00:09:12.405Z,8.37
2023-04-29T00:09:22.420Z,8.36
2023-04-29T00:09:32.402Z,8.37
2023-04-29T00:09:42.407Z,8.38
2023-04-29T00:09:52.505Z,8.36
2023-04-29T00:10:02.411Z,8.35
2023-04-29T00:10:12.431Z,8.36
2023-04-29T00:10:23.029Z,8.37
2023-04-29T00:10:32.409Z,8.37
2023-04-29T00:10:42.417Z,8.37
2023-04-29T00:10:52.438Z,8.36
2023-04-29T00:11:02.420Z,8.36
2023-04-29T00:11:22.421Z,8.37
2023-04-29T00:11:32.416Z,8.37
2023-04-29T00:11:42.425Z,8.36
2023-04-29T00:11:52.428Z,8.34
2023-04-29T00:12:02.446Z,8.35
2023-04-29T00:12:12.420Z,8.36
2023-04-29T00:12:32.419Z,8.37
2023-04-29T00:12:42.418Z,8.36
2023-04-29T00:12:52.437Z,8.37
2023-04-29T00:13:02.423Z,8.36
2023-04-29T00:13:12.410Z,8.38
2023-04-29T00:13:22.435Z,8.37
2023-04-29T00:13:32.429Z,8.36
2023-04-29T00:13:42.428Z,8.36
2023-04-29T00:13:52.450Z,8.36
2023-04-29T00:14:02.436Z,8.35
2023-04-29T00:14:12.433Z,8.36
2023-04-29T00:14:22.429Z,8.36
2023-04-29T00:14:32.434Z,8.38
2023-04-29T00:14:42.464Z,8.37
2023-04-29T00:15:02.453Z,8.37
2023-04-29T00:15:12.444Z,8.36
2023-04-29T00:15:22.434Z,8.36
2023-04-29T00:15:32.435Z,8.35
2023-04-29T00:15:42.431Z,8.37
2023-04-29T00:15:52.433Z,8.35
2023-04-29T00:16:12.434Z,8.34
2023-04-29T00:16:22.461Z,8.37
2023-04-29T00:16:32.498Z,8.36
2023-04-29T00:16:42.493Z,8.36
2023-04-29T00:16:52.465Z,8.35
2023-04-29T00:17:02.473Z,8.34
2023-04-29T00:17:12.521Z,8.36
2023-04-29T00:17:22.501Z,8.35
2023-04-29T00:17:32.462Z,8.37
2023-04-29T00:17:42.477Z,8.37
2023-04-29T00:17:52.480Z,8.36
2023-04-29T00:18:02.524Z,8.35
2023-04-29T00:18:12.460Z,8.35
2023-04-29T00:18:32.472Z,8.34
2023-04-29T00:18:42.479Z,8.34
2023-04-29T00:18:52.450Z,8.33
2023-04-29T00:19:02.449Z,8.35
2023-04-29T00:19:12.450Z,8.34
2023-04-29T00:19:22.461Z,8.35
2023-04-29T00:19:32.456Z,8.36
2023-04-29T00:19:52.760Z,8.33
2023-04-29T00:20:02.460Z,8.34
2023-04-29T00:20:12.468Z,8.34
2023-04-29T00:20:22.469Z,8.33
2023-04-29T00:20:32.460Z,8.34
2023-04-29T00:20:42.458Z,8.35
2023-04-29T00:20:52.458Z,8.33
2023-04-29T00:21:02.475Z,8.35
2023-04-29T00:21:22.450Z,8.31
2023-04-29T00:21:32.455Z,8.31
2023-04-29T00:21:42.453Z,8.32
2023-04-29T00:21:52.466Z,8.33
2023-04-29T00:22:02.477Z,8.30
2023-04-29T00:22:12.462Z,8.31
2023-04-29T00:22:22.466Z,8.30
2023-04-29T00:22:32.475Z,8.33
2023-04-29T00:22:42.458Z,8.32
2023-04-29T00:22:52.471Z,8.30
2023-04-29T00:23:02.465Z,8.30
2023-04-29T00:23:12.474Z,8.31
2023-04-29T00:23:22.484Z,8.31
2023-04-29T00:23:32.458Z,8.30
2023-04-29T00:23:42.471Z,8.31
2023-04-29T00:23:52.470Z,8.32
2023-04-29T00:24:02.478Z,8.34
2023-04-29T00:24:12.471Z,8.33
2023-04-29T00:24:22.485Z,8.34
2023-04-29T00:24:42.465Z,8.34
2023-04-29T00:24:52.470Z,8.33
2023-04-29T00:25:02.496Z,8.35
2023-04-29T00:25:12.497Z,8.35
2023-04-29T00:25:22.473Z,8.34
2023-04-29T00:25:32.476Z,8.35
2023-04-29T00:25:42.475Z,8.35
2023-04-29T00:25:52.501Z,8.36
2023-04-29T00:26:02.488Z,8.36
2023-04-29T00:26:12.486Z,8.38
2023-04-29T00:26:22.485Z,8.37
2023-04-29T00:26:32.488Z,8.36
2023-04-29T00:26:42.485Z,8.36
2023-04-29T00:27:02.493Z,8.34
2023-04-29T00:27:12.487Z,8.34
2023-04-29T00:27:22.505Z,8.32
2023-04-29T00:27:32.479Z,8.32
2023-04-29T00:27:42.490Z,8.32
2023-04-29T00:27:52.494Z,8.31
2023-04-29T00:28:02.491Z,8.31
2023-04-29T00:28:12.486Z,8.30
2023-04-29T00:28:22.502Z,8.30
2023-04-29T00:28:32.506Z,8.31
2023-04-29T00:28:42.492Z,8.29
2023-04-29T00:29:02.500Z,8.28
2023-04-29T00:29:12.492Z,8.29
2023-04-29T00:29:22.516Z,8.29
2023-04-29T00:29:32.515Z,8.28
2023-04-29T00:29:42.498Z,8.27
2023-04-29T00:29:52.749Z,8.27
2023-04-29T00:30:02.496Z,8.26
2023-04-29T00:30:12.506Z,8.24
2023-04-29T00:30:32.499Z,8.23
2023-04-29T00:30:42.511Z,8.26
2023-04-29T00:30:52.533Z,8.27
2023-04-29T00:31:02.586Z,8.27
2023-04-29T00:31:12.529Z,8.26
2023-04-29T00:31:22.588Z,8.27
2023-04-29T00:31:42.498Z,8.27
2023-04-29T00:31:52.495Z,8.26
2023-04-29T00:32:02.521Z,8.25
2023-04-29T00:32:12.504Z,8.26
2023-04-29T00:32:22.539Z,8.27
2023-04-29T00:32:32.526Z,8.23
2023-04-29T00:32:42.523Z,8.26
2023-04-29T00:32:52.550Z,8.25
2023-04-29T00:33:02.638Z,8.25
2023-04-29T00:33:22.514Z,8.24
2023-04-29T00:33:32.513Z,8.23
2023-04-29T00:33:42.511Z,8.23
2023-04-29T00:33:52.503Z,8.24
2023-04-29T00:34:02.504Z,8.25
2023-04-29T00:34:12.551Z,8.24
2023-04-29T00:34:22.502Z,8.25
2023-04-29T00:34:32.515Z,8.24
2023-04-29T00:34:42.526Z,8.24
2023-04-29T00:34:52.508Z,8.24
2023-04-29T00:35:02.515Z,8.24
2023-04-29T00:35:12.523Z,8.23
2023-04-29T00:35:22.529Z,8.23
2023-04-29T00:35:32.513Z,8.23
2023-04-29T00:35:52.534Z,8.22
2023-04-29T00:36:02.512Z,8.22
2023-04-29T00:36:12.537Z,8.21
2023-04-29T00:36:22.535Z,8.23
2023-04-29T00:36:32.549Z,8.21
2023-04-29T00:36:42.518Z,8.22
2023-04-29T00:36:52.515Z,8.21
2023-04-29T00:37:02.520Z,8.23
2023-04-29T00:37:12.525Z,8.22
2023-04-29T00:37:32.530Z,8.22
2023-04-29T00:37:42.526Z,8.22
2023-04-29T00:37:52.518Z,8.23
2023-04-29T00:38:02.523Z,8.24
2023-04-29T00:38:12.524Z,8.23
2023-04-29T00:38:22.531Z,8.22
2023-04-29T00:38:42.557Z,8.23
2023-04-29T00:38:52.541Z,8.23
2023-04-29T00:39:02.530Z,8.24
2023-04-29T00:39:14.649Z,8.24
2023-04-29T00:39:22.529Z,8.23
2023-04-29T00:39:32.531Z,8.24
2023-04-29T00:39:42.555Z,8.27
2023-04-29T00:39:52.820Z,8.26
2023-04-29T00:40:02.545Z,8.27
2023-04-29T00:40:12.544Z,8.26
2023-04-29T00:40:22.535Z,8.24
2023-04-29T00:40:32.535Z,8.24
2023-04-29T00:40:42.543Z,8.24
2023-04-29T00:40:52.532Z,8.23
2023-04-29T00:41:02.579Z,8.23
2023-04-29T00:41:22.543Z,8.22
2023-04-29T00:41:32.538Z,8.23
2023-04-29T00:41:42.665Z,8.23
2023-04-29T00:41:52.570Z,8.23
2023-04-29T00:42:02.545Z,8.23
2023-04-29T00:42:12.563Z,8.22
2023-04-29T00:42:32.553Z,8.25
2023-04-29T00:42:42.575Z,8.25
2023-04-29T00:42:52.557Z,8.25
2023-04-29T00:43:02.557Z,8.25
2023-04-29T00:43:12.561Z,8.23
2023-04-29T00:43:22.552Z,8.24
2023-04-29T00:43:32.555Z,8.24
2023-04-29T00:43:52.547Z,8.24
2023-04-29T00:44:02.547Z,8.24
2023-04-29T00:44:12.561Z,8.24
2023-04-29T00:44:22.587Z,8.26
2023-04-29T00:44:32.585Z,8.25
2023-04-29T00:44:42.567Z,8.25
2023-04-29T00:44:52.570Z,8.25
2023-04-29T00:45:02.763Z,8.23
2023-04-29T00:45:12.572Z,8.25
2023-04-29T00:45:32.541Z,8.24
2023-04-29T00:45:42.564Z,8.24
2023-04-29T00:45:52.615Z,8.24
2023-04-29T00:46:02.577Z,8.25
2023-04-29T00:46:12.618Z,8.26
2023-04-29T00:46:22.671Z,8.23
2023-04-29T00:46:32.569Z,8.23
2023-04-29T00:46:52.566Z,8.25
2023-04-29T00:47:02.564Z,8.24
2023-04-29T00:47:12.589Z,8.23
2023-04-29T00:47:22.610Z,8.23
2023-04-29T00:47:32.620Z,8.25
2023-04-29T00:47:42.595Z,8.25
2023-04-29T00:47:52.707Z,8.24
2023-04-29T00:48:02.576Z,8.26
2023-04-29T00:48:12.568Z,8.27
2023-04-29T00:48:22.577Z,8.26
2023-04-29T00:48:32.570Z,8.24
2023-04-29T00:48:42.574Z,8.24
2023-04-29T00:48:52.576Z,8.25
2023-04-29T00:49:02.581Z,8.26
2023-04-29T00:49:12.600Z,8.25
2023-04-29T00:49:22.590Z,8.23
2023-04-29T00:49:32.572Z,8.23
2023-04-29T00:49:42.580Z,8.22
2023-04-29T00:49:52.759Z,8.21
2023-04-29T00:50:02.589Z,8.21
2023-04-29T00:50:12.653Z,8.21
2023-04-29T00:50:22.592Z,8.21
2023-04-29T00:50:32.588Z,8.19
2023-04-29T00:50:42.582Z,8.19
2023-04-29T00:50:52.582Z,8.20
2023-04-29T00:51:02.581Z,8.19
2023-04-29T00:51:22.604Z,8.19
2023-04-29T00:51:32.584Z,8.19
2023-04-29T00:51:42.587Z,8.19
2023-04-29T00:51:52.588Z,8.22
2023-04-29T00:52:02.585Z,8.22
2023-04-29T00:52:12.609Z,8.21
2023-04-29T00:52:22.607Z,8.22
2023-04-29T00:52:32.596Z,8.21
2023-04-29T00:52:42.590Z,8.21
2023-04-29T00:52:52.610Z,8.22
2023-04-29T00:53:02.598Z,8.23
2023-04-29T00:53:12.594Z,8.23
2023-04-29T00:53:32.619Z,8.22
2023-04-29T00:53:42.599Z,8.22
2023-04-29T00:53:52.594Z,8.22
2023-04-29T00:54:02.604Z,8.20
2023-04-29T00:54:12.606Z,8.22
2023-04-29T00:54:22.599Z,8.21
2023-04-29T00:54:32.618Z,8.18
2023-04-29T00:54:42.628Z,8.20
2023-04-29T00:54:52.608Z,8.20
2023-04-29T00:55:02.628Z,8.19
2023-04-29T00:55:12.616Z,8.19
2023-04-29T00:55:22.616Z,8.20
2023-04-29T00:55:32.649Z,8.21
2023-04-29T00:55:52.617Z,8.21
2023-04-29T00:56:02.615Z,8.20
2023-04-29T00:56:12.614Z,8.19
2023-04-29T00:56:22.617Z,8.20
2023-04-29T00:56:32.625Z,8.20
2023-04-29T00:56:42.633Z,8.20
2023-04-29T00:56:52.627Z,8.22
2023-04-29T00:57:02.616Z,8.21
2023-04-29T00:57:12.616Z,8.21
2023-04-29T00:57:22.619Z,8.19
2023-04-29T00:57:42.641Z,8.20
2023-04-29T00:57:52.696Z,8.20
2023-04-29T00:58:02.661Z,8.19
2023-04-29T00:58:12.615Z,8.20
2023-04-29T00:58:22.626Z,8.21
2023-04-29T00:58:32.623Z,8.21
2023-04-29T00:58:42.676Z,8.20
2023-04-29T00:58:52.621Z,8.21
2023-04-29T00:59:02.644Z,8.20
2023-04-29T00:59:12.673Z,8.18
2023-04-29T00:59:22.624Z,8.21
2023-04-29T00:59:32.627Z,8.22
2023-04-29T00:59:52.849Z,8.19
2023-04-29T01:00:02.646Z,8.19
2023-04-29T01:00:12.634Z,8.19
2023-04-29T01:00:22.643Z,8.19
2023-04-29T01:00:32.643Z,8.20
2023-04-29T01:00:42.629Z,8.18
2023-04-29T01:00:53.815Z,8.19
2023-04-29T01:01:12.660Z,8.17
2023-04-29T01:01:22.733Z,8.17
2023-04-29T01:01:32.690Z,8.18
2023-04-29T01:01:42.660Z,8.19
2023-04-29T01:01:52.804Z,8.19
2023-04-29T01:02:02.639Z,8.18
2023-04-29T01:02:22.701Z,8.20
2023-04-29T01:02:32.699Z,8.17
2023-04-29T01:02:42.697Z,8.18
2023-04-29T01:02:52.742Z,8.18
2023-04-29T01:03:02.768Z,8.18
2023-04-29T01:03:12.763Z,8.18
2023-04-29T01:03:22.792Z,8.19
2023-04-29T01:03:32.832Z,8.20
2023-04-29T01:03:42.769Z,8.19
2023-04-29T01:03:52.801Z,8.18
2023-04-29T01:04:02.841Z,8.20
2023-04-29T01:04:12.750Z,8.19
2023-04-29T01:04:32.692Z,8.19
2023-04-29T01:04:42.675Z,8.18
2023-04-29T01:04:52.746Z,8.19
2023-04-29T01:05:02.676Z,8.19
2023-04-29T01:05:12.649Z,8.19
2023-04-29T01:05:22.660Z,8.20
2023-04-29T01:05:32.645Z,8.22
2023-04-29T01:05:42.659Z,8.22
2023-04-29T01:05:52.666Z,8.21
2023-04-29T01:06:12.637Z,8.20
2023-04-29T01:06:22.652Z,8.19
2023-04-29T01:06:32.650Z,8.19
2023-04-29T01:06:42.652Z,8.17
2023-04-29T01:06:52.680Z,8.19
2023-04-29T01:07:02.665Z,8.20
2023-04-29T01:07:12.660Z,8.19
2023-04-29T01:07:22.654Z,8.20
2023-04-29T01:07:32.667Z,8.20
2023-04-29T01:07:42.661Z,8.21
2023-04-29T01:07:52.670Z,8.19
2023-04-29T01:08:12.669Z,8.20
2023-04-29T01:08:22.672Z,8.19
2023-04-29T01:08:32.669Z,8.20
2023-04-29T01:08:42.657Z,8.19
2023-04-29T01:08:52.698Z,8.20
2023-04-29T01:09:02.659Z,8.17
2023-04-29T01:09:12.658Z,8.19
2023-04-29T01:09:22.671Z,8.19
2023-04-29T01:09:32.665Z,8.16
2023-04-29T01:09:42.666Z,8.16
2023-04-29T01:10:02.666Z,8.17
2023-04-29T01:10:12.670Z,8.16
2023-04-29T01:10:22.771Z,8.18
2023-04-29T01:10:32.678Z,8.15
2023-04-29T01:10:42.667Z,8.16
2023-04-29T01:10:52.689Z,8.13
2023-04-29T01:11:02.674Z,8.15
2023-04-29T01:11:12.691Z,8.14
2023-04-29T01:11:32.674Z,8.13
2023-04-29T01:11:42.681Z,8.13
2023-04-29T01:11:52.690Z,8.13
2023-04-29T01:12:02.674Z,8.14
2023-04-29T01:12:12.693Z,8.13
2023-04-29T01:12:22.687Z,8.14
2023-04-29T01:12:32.681Z,8.13
2023-04-29T01:12:52.690Z,8.14
2023-04-29T01:13:02.685Z,8.14
2023-04-29T01:13:12.696Z,8.15
2023-04-29T01:13:22.685Z,8.14
2023-04-29T01:13:32.679Z,8.15
2023-04-29T01:13:42.697Z,8.16
2023-04-29T01:13:52.691Z,8.15
2023-04-29T01:14:02.686Z,8.15
2023-04-29T01:14:22.706Z,8.16
2023-04-29T01:14:32.689Z,8.15
2023-04-29T01:14:42.690Z,8.16
2023-04-29T01:14:52.696Z,8.17
2023-04-29T01:15:02.703Z,8.14
2023-04-29T01:15:12.721Z,8.16
2023-04-29T01:15:22.728Z,8.18
2023-04-29T01:15:32.686Z,8.17
2023-04-29T01:15:52.755Z,8.16
2023-04-29T01:16:02.717Z,8.15
2023-04-29T01:16:12.729Z,8.15
2023-04-29T01:16:22.787Z,8.16
2023-04-29T01:16:32.717Z,8.17
2023-04-29T01:16:42.698Z,8.17
2023-04-29T01:16:52.708Z,8.15
2023-04-29T01:17:02.705Z,8.15
2023-04-29T01:17:12.721Z,8.14
2023-04-29T01:17:22.702Z,8.14
2023-04-29T01:17:32.723Z,8.12
2023-04-29T01:17:42.773Z,8.11
2023-04-29T01:17:52.721Z,8.11
2023-04-29T01:18:02.750Z,8.10
2023-04-29T01:18:22.700Z,8.10
2023-04-29T01:18:32.701Z,8.10
2023-04-29T01:18:42.705Z,8.11
2023-04-29T01:18:52.703Z,8.11
2023-04-29T01:19:02.710Z,8.09
2023-04-29T01:19:12.716Z,8.09
2023-04-29T01:19:22.710Z,8.08
2023-04-29T01:19:32.717Z,8.05
2023-04-29T01:19:42.706Z,8.05
2023-04-29T01:19:53.007Z,8.04
2023-04-29T01:20:02.709Z,8.06
2023-04-29T01:20:12.709Z,8.05
2023-04-29T01:20:22.743Z,8.04
2023-04-29T01:20:32.730Z,8.06
2023-04-29T01:20:42.710Z,8.06
2023-04-29T01:20:52.714Z,8.05
2023-04-29T01:21:02.722Z,8.05
2023-04-29T01:21:12.714Z,8.06
2023-04-29T01:21:32.713Z,8.09
2023-04-29T01:21:42.722Z,8.09
2023-04-29T01:21:52.744Z,8.09
2023-04-29T01:22:02.721Z,8.10
2023-04-29T01:22:12.713Z,8.10
2023-04-29T01:22:22.721Z,8.09
2023-04-29T01:22:32.731Z,8.08
2023-04-29T01:22:52.722Z,8.09
2023-04-29T01:23:02.737Z,8.08
2023-04-29T01:23:12.726Z,8.07
2023-04-29T01:23:22.721Z,8.07
2023-04-29T01:23:32.728Z,8.06
2023-04-29T01:23:42.731Z,8.05
2023-04-29T01:24:02.736Z,8.08
2023-04-29T01:24:12.730Z,8.05
2023-04-29T01:24:22.719Z,8.06
2023-04-29T01:24:32.725Z,8.05
2023-04-29T01:24:42.727Z,8.06
2023-04-29T01:24:52.757Z,8.05
2023-04-29T01:25:02.747Z,8.05
2023-04-29T01:25:12.731Z,8.07
2023-04-29T01:25:22.725Z,8.05
2023-04-29T01:25:32.733Z,8.05
2023-04-29T01:25:42.741Z,8.03
2023-04-29T01:25:52.740Z,8.05
2023-04-29T01:26:12.743Z,8.05
2023-04-29T01:26:22.732Z,8.03
2023-04-29T01:26:32.726Z,8.05
2023-04-29T01:26:42.744Z,8.06
2023-04-29T01:26:52.745Z,8.05
2023-04-29T01:27:02.744Z,8.05
2023-04-29T01:27:12.752Z,8.04
2023-04-29T01:27:22.733Z,8.05
2023-04-29T01:27:32.743Z,8.02
2023-04-29T01:27:42.754Z,8.01
2023-04-29T01:28:02.744Z,8.03
2023-04-29T01:28:12.760Z,8.01
2023-04-29T01:28:22.740Z,8.01
2023-04-29T01:28:32.755Z,7.99
2023-04-29T01:28:42.751Z,8.00
2023-04-29T01:28:52.755Z,8.03
2023-04-29T01:29:02.744Z,8.01
2023-04-29T01:29:22.755Z,8.01
2023-04-29T01:29:32.743Z,8.00
2023-04-29T01:29:42.755Z,8.00
2023-04-29T01:29:53.070Z,7.99
2023-04-29T01:30:02.750Z,7.98
2023-04-29T01:30:12.760Z,7.97
2023-04-29T01:30:22.780Z,7.98
2023-04-29T01:30:32.759Z,8.00
2023-04-29T01:30:42.769Z,7.98
2023-04-29T01:30:52.753Z,8.00
2023-04-29T01:31:02.770Z,8.00
2023-04-29T01:31:12.795Z,7.98
2023-04-29T01:31:32.856Z,7.98
2023-04-29T01:31:42.801Z,8.00
2023-04-29T01:31:53.057Z,7.99
2023-04-29T01:32:02.764Z,7.98
2023-04-29T01:32:12.771Z,7.98
2023-04-29T01:32:22.757Z,7.98
2023-04-29T01:32:42.840Z,7.98
2023-04-29T01:32:52.809Z,7.99
2023-04-29T01:33:02.862Z,7.99
2023-04-29T01:33:12.839Z,7.97
2023-04-29T01:33:22.773Z,7.96
2023-04-29T01:33:32.759Z,7.97
2023-04-29T01:33:52.784Z,7.95
2023-04-29T01:34:02.812Z,7.95
2023-04-29T01:34:12.765Z,7.94
2023-04-29T01:34:22.786Z,7.93
2023-04-29T01:34:32.766Z,7.94
2023-04-29T01:34:42.787Z,7.92
2023-04-29T01:34:52.791Z,7.92
2023-04-29T01:35:02.772Z,7.93
2023-04-29T01:35:12.768Z,7.90
2023-04-29T01:35:22.788Z,7.91
2023-04-29T01:35:32.771Z,7.91
2023-04-29T01:35:42.775Z,7.90
2023-04-29T01:35:52.804Z,7.90
2023-04-29T01:36:02.779Z,7.89
2023-04-29T01:36:12.780Z,7.91
2023-04-29T01:36:32.797Z,7.91
2023-04-29T01:36:42.791Z,7.92
2023-04-29T01:36:52.775Z,7.94
2023-04-29T01:37:02.782Z,7.95
2023-04-29T01:37:12.785Z,7.96
2023-04-29T01:37:22.787Z,7.95
2023-04-29T01:37:32.790Z,7.92
2023-04-29T01:37:42.778Z,7.90
2023-04-29T01:37:52.779Z,7.93
2023-04-29T01:38:02.792Z,7.93
2023-04-29T01:38:12.794Z,7.93
2023-04-29T01:38:22.809Z,7.94
2023-04-29T01:38:32.816Z,7.93
2023-04-29T01:38:42.820Z,7.94
2023-04-29T01:38:52.791Z,7.91
2023-04-29T01:39:02.791Z,7.90
2023-04-29T01:39:12.800Z,7.91
2023-04-29T01:39:22.799Z,7.91
2023-04-29T01:39:32.809Z,7.91
2023-04-29T01:39:42.795Z,7.90
2023-04-29T01:40:02.805Z,7.90
2023-04-29T01:40:12.792Z,7.88
2023-04-29T01:40:22.825Z,7.89
2023-04-29T01:40:32.819Z,7.88
2023-04-29T01:40:42.802Z,7.90
2023-04-29T01:40:52.790Z,7.90
2023-04-29T01:41:02.835Z,7.90
2023-04-29T01:41:12.796Z,7.90
2023-04-29T01:41:32.813Z,7.90
2023-04-29T01:41:42.805Z,7.90
2023-04-29T01:41:52.801Z,7.92
2023-04-29T01:42:02.810Z,7.92
2023-04-29T01:42:12.810Z,7.91
2023-04-29T01:42:22.802Z,7.90
2023-04-29T01:42:32.807Z,7.89
2023-04-29T01:42:42.803Z,7.92
2023-04-29T01:42:52.804Z,7.90
2023-04-29T01:43:12.817Z,7.88
2023-04-29T01:43:22.806Z,7.88
2023-04-29T01:43:32.804Z,7.88
2023-04-29T01:43:42.810Z,7.90
2023-04-29T01:43:52.820Z,7.89
2023-04-29T01:44:02.828Z,7.90
2023-04-29T01:44:12.807Z,7.90
2023-04-29T01:44:22.810Z,7.90
2023-04-29T01:44:32.816Z,7.88
2023-04-29T01:44:42.812Z,7.87
2023-04-29T01:44:52.816Z,7.86
2023-04-29T01:45:02.814Z,7.88
2023-04-29T01:45:12.818Z,7.86
2023-04-29T01:45:22.831Z,7.85
2023-04-29T01:45:42.815Z,7.84
2023-04-29T01:45:52.818Z,7.83
2023-04-29T01:46:02.813Z,7.84
2023-04-29T01:46:12.845Z,7.82
2023-04-29T01:46:22.901Z,7.87
2023-04-29T01:46:32.872Z,7.84
2023-04-29T01:46:42.859Z,7.85
2023-04-29T01:46:52.878Z,7.87
2023-04-29T01:47:02.958Z,7.85
2023-04-29T01:47:22.856Z,7.87
2023-04-29T01:47:32.865Z,7.85
2023-04-29T01:47:42.843Z,7.87
2023-04-29T01:47:52.881Z,7.86
2023-04-29T01:48:02.951Z,7.84
2023-04-29T01:48:12.818Z,7.86
2023-04-29T01:48:22.821Z,7.87
2023-04-29T01:48:32.822Z,7.87
2023-04-29T01:48:42.831Z,7.87
2023-04-29T01:48:52.844Z,7.86
2023-04-29T01:49:02.824Z,7.86
2023-04-29T01:49:12.822Z,7.87
2023-04-29T01:49:22.838Z,7.85
2023-04-29T01:49:32.861Z,7.85
2023-04-29T01:49:42.841Z,7.86
2023-04-29T01:50:02.842Z,7.83
2023-04-29T01:50:12.826Z,7.81
2023-04-29T01:50:22.842Z,7.82
2023-04-29T01:50:32.885Z,7.80
2023-04-29T01:50:42.836Z,7.80
2023-04-29T01:50:52.838Z,7.77
2023-04-29T01:51:02.833Z,7.78
2023-04-29T01:51:12.833Z,7.77
2023-04-29T01:51:32.835Z,7.75
2023-04-29T01:51:42.832Z,7.77
2023-04-29T01:51:52.842Z,7.79
2023-04-29T01:52:02.839Z,7.79
2023-04-29T01:52:12.835Z,7.79
2023-04-29T01:52:22.852Z,7.80
2023-04-29T01:52:32.837Z,7.80
2023-04-29T01:52:42.862Z,7.80
2023-04-29T01:52:52.846Z,7.82
2023-04-29T01:53:02.845Z,7.82
2023-04-29T01:53:12.841Z,7.81
2023-04-29T01:53:22.860Z,7.80
2023-04-29T01:53:32.846Z,7.79
2023-04-29T01:53:52.850Z,7.81
2023-04-29T01:54:02.859Z,7.80
2023-04-29T01:54:12.846Z,7.82
2023-04-29T01:54:22.857Z,7.79
2023-04-29T01:54:32.853Z,7.79
2023-04-29T01:54:42.878Z,7.78
2023-04-29T01:54:52.877Z,7.79
2023-04-29T01:55:02.874Z,7.78
2023-04-29T01:55:12.869Z,7.77
2023-04-29T01:55:22.877Z,7.78
2023-04-29T01:55:32.874Z,7.77
2023-04-29T01:55:52.901Z,7.76
2023-04-29T01:56:02.866Z,7.78
2023-04-29T01:56:12.859Z,7.77
2023-04-29T01:56:22.867Z,7.77
2023-04-29T01:56:32.864Z,7.80
2023-04-29T01:56:42.859Z,7.79
2023-04-29T01:57:02.862Z,7.76
2023-04-29T01:57:12.887Z,7.76
2023-04-29T01:57:22.863Z,7.78
2023-04-29T01:57:32.870Z,7.78
2023-04-29T01:57:42.863Z,7.78
2023-04-29T01:57:52.905Z,7.79
2023-04-29T01:58:02.890Z,7.79
2023-04-29T01:58:22.882Z,7.76
2023-04-29T01:58:32.874Z,7.74
2023-04-29T01:58:42.870Z,7.76
2023-04-29T01:58:52.871Z,7.72
2023-04-29T01:59:02.872Z,7.74
2023-04-29T01:59:12.916Z,7.73
2023-04-29T01:59:22.873Z,7.73
2023-04-29T01:59:32.883Z,7.75
2023-04-29T01:59:42.871Z,7.76
2023-04-29T02:00:02.876Z,7.78
2023-04-29T02:00:12.889Z,7.76
2023-04-29T02:00:22.902Z,7.76
2023-04-29T02:00:32.912Z,7.79
2023-04-29T02:00:42.903Z,7.77
2023-04-29T02:00:52.976Z,7.78
2023-04-29T02:01:02.944Z,7.75
2023-04-29T02:01:12.952Z,7.76
2023-04-29T02:01:32.881Z,7.76
2023-04-29T02:01:42.888Z,7.75
2023-04-29T02:01:52.887Z,7.76
2023-04-29T02:02:02.891Z,7.76
2023-04-29T02:02:12.899Z,7.76
2023-04-29T02:02:22.943Z,7.76
2023-04-29T02:02:32.936Z,7.77
2023-04-29T02:02:42.968Z,7.75
2023-04-29T02:03:02.972Z,7.76
2023-04-29T02:03:12.961Z,7.76
2023-04-29T02:03:22.977Z,7.74
2023-04-29T02:03:33.094Z,7.75
2023-04-29T02:03:43.184Z,7.74
2023-04-29T02:03:53.231Z,7.72
2023-04-29T02:04:03.044Z,7.72
2023-04-29T02:04:12.965Z,7.73
2023-04-29T02:04:22.907Z,7.73
2023-04-29T02:04:32.925Z,7.76
2023-04-29T02:04:42.949Z,7.74
2023-04-29T02:04:53.021Z,7.76
2023-04-29T02:05:02.896Z,7.75
2023-04-29T02:05:12.904Z,7.77
2023-04-29T02:05:22.926Z,7.78
2023-04-29T02:05:32.896Z,7.78
2023-04-29T02:05:42.899Z,7.77
2023-04-29T02:06:02.900Z,7.77
2023-04-29T02:06:12.904Z,7.77
2023-04-29T02:06:22.918Z,7.75
2023-04-29T02:06:32.902Z,7.76
2023-04-29T02:06:42.934Z,7.76
2023-04-29T02:06:52.943Z,7.77
2023-04-29T02:07:02.910Z,7.77
2023-04-29T02:07:12.911Z,7.75
2023-04-29T02:07:22.905Z,7.74
2023-04-29T02:07:32.905Z,7.74
2023-04-29T02:07:52.906Z,7.74
2023-04-29T02:08:02.908Z,7.73
2023-04-29T02:08:12.920Z,7.72
2023-04-29T02:08:22.917Z,7.73
2023-04-29T02:08:32.923Z,7.73
2023-04-29T02:08:42.935Z,7.72
2023-04-29T02:09:02.928Z,7.72
2023-04-29T02:09:12.922Z,7.70
2023-04-29T02:09:22.925Z,7.71
2023-04-29T02:09:32.952Z,7.70
2023-04-29T02:09:42.925Z,7.70
2023-04-29T02:09:53.153Z,7.70
2023-04-29T02:10:02.932Z,7.69
2023-04-29T02:10:12.926Z,7.70
2023-04-29T02:10:22.931Z,7.71
2023-04-29T02:10:32.917Z,7.72
2023-04-29T02:10:42.936Z,7.71
2023-04-29T02:10:52.935Z,7.71
2023-04-29T02:11:02.927Z,7.72
2023-04-29T02:11:12.923Z,7.73
2023-04-29T02:11:32.930Z,7.72
2023-04-29T02:11:42.929Z,7.72
2023-04-29T02:11:52.950Z,7.73
2023-04-29T02:12:02.941Z,7.73
2023-04-29T02:12:12.953Z,7.71
2023-04-29T02:12:22.937Z,7.72
2023-04-29T02:12:32.933Z,7.71
2023-04-29T02:12:42.952Z,7.73
2023-04-29T02:13:02.937Z,7.71
2023-04-29T02:13:12.949Z,7.71
2023-04-29T02:13:22.932Z,7.74
2023-04-29T02:13:32.942Z,7.74
2023-04-29T02:13:42.935Z,7.73
2023-04-29T02:13:52.936Z,7.73
2023-04-29T02:14:02.931Z,7.72
2023-04-29T02:14:12.959Z,7.73
2023-04-29T02:14:22.940Z,7.71
2023-04-29T02:14:32.937Z,7.72
2023-04-29T02:14:42.941Z,7.72
2023-04-29T02:14:52.945Z,7.71
2023-04-29T02:15:02.939Z,7.72
2023-04-29T02:15:12.944Z,7.71
2023-04-29T02:15:22.973Z,7.73
2023-04-29T02:15:32.944Z,7.72
2023-04-29T02:15:42.950Z,7.71
2023-04-29T02:15:53.007Z,7.71
2023-04-29T02:16:03.012Z,7.71
2023-04-29T02:16:13.034Z,7.71
2023-04-29T02:16:32.987Z,7.73
2023-04-29T02:16:42.980Z,7.71
2023-04-29T02:16:52.965Z,7.72
2023-04-29T02:17:02.952Z,7.69
2023-04-29T02:17:12.981Z,7.71
2023-04-29T02:17:23.000Z,7.68
2023-04-29T02:17:32.990Z,7.68
2023-04-29T02:17:42.992Z,7.68
2023-04-29T02:17:53.011Z,7.67
2023-04-29T02:18:03.044Z,7.68
2023-04-29T02:18:22.956Z,7.69
2023-04-29T02:18:32.959Z,7.70
2023-04-29T02:18:42.958Z,7.67
2023-04-29T02:18:52.960Z,7.68
2023-04-29T02:19:02.958Z,7.65
2023-04-29T02:19:12.963Z,7.65
2023-04-29T02:19:22.963Z,7.65
2023-04-29T02:19:42.968Z,7.63
2023-04-29T02:19:53.179Z,7.63
2023-04-29T02:20:02.972Z,7.64
2023-04-29T02:20:12.979Z,7.65
2023-04-29T02:20:22.988Z,7.66
2023-04-29T02:20:32.958Z,7.63
2023-04-29T02:20:43.005Z,7.63
2023-04-29T02:20:52.965Z,7.62
2023-04-29T02:21:02.989Z,7.61
2023-04-29T02:21:22.968Z,7.65
2023-04-29T02:21:32.991Z,7.64
2023-04-29T02:21:42.967Z,7.63
2023-04-29T02:21:52.969Z,7.61
2023-04-29T02:22:02.982Z,7.62
2023-04-29T02:22:12.982Z,7.63
2023-04-29T02:22:22.977Z,7.65
2023-04-29T02:22:32.973Z,7.62
2023-04-29T02:22:52.971Z,7.62
2023-04-29T02:23:02.978Z,7.61
2023-04-29T02:23:13.024Z,7.60
2023-04-29T02:23:22.976Z,7.59
2023-04-29T02:23:32.976Z,7.60
2023-04-29T02:23:42.978Z,7.58
2023-04-29T02:23:52.983Z,7.59
2023-04-29T02:24:02.976Z,7.59
2023-04-29T02:24:12.984Z,7.61
2023-04-29T02:24:22.991Z,7.63
2023-04-29T02:24:32.980Z,7.59
2023-04-29T02:24:42.992Z,7.60
2023-04-29T02:25:03.009Z,7.63
2023-04-29T02:25:12.991Z,7.62
2023-04-29T02:25:23.012Z,7.64
2023-04-29T02:25:33.002Z,7.63
2023-04-29T02:25:43.006Z,7.65